sensor_id;sensor_type;location;lat;lon;timestamp;temperature;humidity
9179;DHT22;4624;48.126;11.546;2023-04-19T00:00:56;9.60;99.90
9179;DHT22;4624;48.126;11.546;2023-04-19T00:03:23;9.60;99.90
9179;DHT22;4624;48.126;11.546;2023-04-19T00:05:50;9.60;99.90
9179;DHT22;4624;48.126;11.546;2023-04-19T00:08:20;9.50;99.90
9179;DHT22;4624;48.126;11.546;2023-04-19T00:10:46;9.50;99.90
9179;DHT22;4624;48.126;11.546;2023-04-19T00:13:13;9.50;99.90
9179;DHT22;4624;48.126;11.546;2023-04-19T00:15:40;9.50;99.90
9179;DHT22;4624;48.126;11.546;2023-04-19T00:18:06;9.50;99.90
9179;DHT22;4624;48.126;11.546;2023-04-19T00:20:33;9.50;99.90
9179;DHT22;4624;48.126;11.546;2023-04-19T00:23:00;9.50;99.90
9179;DHT22;4624;48.126;11.546;2023-04-19T00:25:29;9.50;99.90
9179;DHT22;4624;48.126;11.546;2023-04-19T00:27:56;9.50;99.90
9179;DHT22;4624;48.126;11.546;2023-04-19T00:30:23;9.50;99.90
9179;DHT22;4624;48.126;11.546;2023-04-19T00:32:50;9.40;99.90
9179;DHT22;4624;48.126;11.546;2023-04-19T00:35:16;9.50;99.90
9179;DHT22;4624;48.126;11.546;2023-04-19T00:37:43;9.50;99.90
9179;DHT22;4624;48.126;11.546;2023-04-19T00:40:10;9.50;99.90
9179;DHT22;4624;48.126;11.546;2023-04-19T00:42:39;9.50;99.90
9179;DHT22;4624;48.126;11.546;2023-04-19T00:45:06;9.50;99.90
9179;DHT22;4624;48.126;11.546;2023-04-19T00:47:34;9.50;99.90
9179;DHT22;4624;48.126;11.546;2023-04-19T00:50:01;9.50;99.90
9179;DHT22;4624;48.126;11.546;2023-04-19T00:52:28;9.50;99.90
9179;DHT22;4624;48.126;11.546;2023-04-19T00:54:57;9.40;99.90
9179;DHT22;4624;48.126;11.546;2023-04-19T00:57:24;9.40;99.90
9179;DHT22;4624;48.126;11.546;2023-04-19T00:59:53;9.50;99.90
9179;DHT22;4624;48.126;11.546;2023-04-19T01:02:20;9.40;99.90
9179;DHT22;4624;48.126;11.546;2023-04-19T01:04:47;9.40;99.90
9179;DHT22;4624;48.126;11.546;2023-04-19T01:07:14;9.50;99.90
9179;DHT22;4624;48.126;11.546;2023-04-19T01:09:42;9.40;99.90
9179;DHT22;4624;48.126;11.546;2023-04-19T01:12:10;9.40;99.90
9179;DHT22;4624;48.126;11.546;2023-04-19T01:14:37;9.40;99.90
9179;DHT22;4624;48.126;11.546;2023-04-19T01:17:05;9.40;99.90
9179;DHT22;4624;48.126;11.546;2023-04-19T01:19:32;9.40;99.90
9179;DHT22;4624;48.126;11.546;2023-04-19T01:22:00;9.40;99.90
9179;DHT22;4624;48.126;11.546;2023-04-19T01:24:29;9.40;99.90
9179;DHT22;4624;48.126;11.546;2023-04-19T01:26:56;9.40;99.90
9179;DHT22;4624;48.126;11.546;2023-04-19T01:29:23;9.40;99.90
9179;DHT22;4624;48.126;11.546;2023-04-19T01:31:50;9.40;99.90
9179;DHT22;4624;48.126;11.546;2023-04-19T01:34:18;9.40;99.90
9179;DHT22;4624;48.126;11.546;2023-04-19T01:36:44;9.40;99.90
9179;DHT22;4624;48.126;11.546;2023-04-19T01:39:11;9.40;99.90
9179;DHT22;4624;48.126;11.546;2023-04-19T01:41:39;9.40;99.90
9179;DHT22;4624;48.126;11.546;2023-04-19T01:44:06;9.40;99.90
9179;DHT22;4624;48.126;11.546;2023-04-19T01:46:33;9.30;99.90
9179;DHT22;4624;48.126;11.546;2023-04-19T01:49:01;9.30;99.90
9179;DHT22;4624;48.126;11.546;2023-04-19T01:51:27;9.30;99.90
9179;DHT22;4624;48.126;11.546;2023-04-19T01:53:54;9.30;99.90
9179;DHT22;4624;48.126;11.546;2023-04-19T01:56:22;9.30;99.90
9179;DHT22;4624;48.126;11.546;2023-04-19T01:58:50;9.30;99.90
9179;DHT22;4624;48.126;11.546;2023-04-19T02:01:17;9.40;99.90
9179;DHT22;4624;48.126;11.546;2023-04-19T02:03:44;9.40;99.90
9179;DHT22;4624;48.126;11.546;2023-04-19T02:06:11;9.40;99.90
9179;DHT22;4624;48.126;11.546;2023-04-19T02:08:38;9.40;99.90
9179;DHT22;4624;48.126;11.546;2023-04-19T02:11:06;9.40;99.90
9179;DHT22;4624;48.126;11.546;2023-04-19T02:13:33;9.40;99.90
9179;DHT22;4624;48.126;11.546;2023-04-19T02:16:01;9.30;99.90
9179;DHT22;4624;48.126;11.546;2023-04-19T02:18:28;9.30;99.90
9179;DHT22;4624;48.126;11.546;2023-04-19T02:20:55;9.30;99.90
9179;DHT22;4624;48.126;11.546;2023-04-19T02:23:22;9.30;99.90
9179;DHT22;4624;48.126;11.546;2023-04-19T02:25:49;9.40;99.90
9179;DHT22;4624;48.126;11.546;2023-04-19T02:28:16;9.40;99.90
9179;DHT22;4624;48.126;11.546;2023-04-19T02:30:43;9.40;99.90
9179;DHT22;4624;48.126;11.546;2023-04-19T02:33:11;9.40;99.90
9179;DHT22;4624;48.126;11.546;2023-04-19T02:35:38;9.40;99.90
9179;DHT22;4624;48.126;11.546;2023-04-19T02:38:05;9.30;99.90
9179;DHT22;4624;48.126;11.546;2023-04-19T02:40:31;9.30;99.90
9179;DHT22;4624;48.126;11.546;2023-04-19T02:42:58;9.30;99.90
9179;DHT22;4624;48.126;11.546;2023-04-19T02:45:25;9.30;99.90
9179;DHT22;4624;48.126;11.546;2023-04-19T02:47:52;9.30;99.90
9179;DHT22;4624;48.126;11.546;2023-04-19T02:50:20;9.30;99.90
9179;DHT22;4624;48.126;11.546;2023-04-19T02:52:47;9.40;99.90
9179;DHT22;4624;48.126;11.546;2023-04-19T02:55:13;9.40;99.90
9179;DHT22;4624;48.126;11.546;2023-04-19T02:57:40;9.40;99.90
9179;DHT22;4624;48.126;11.546;2023-04-19T03:00:08;9.40;99.90
9179;DHT22;4624;48.126;11.546;2023-04-19T03:02:35;9.40;99.90
9179;DHT22;4624;48.126;11.546;2023-04-19T03:05:02;9.40;99.90
9179;DHT22;4624;48.126;11.546;2023-04-19T03:07:30;9.40;99.90
9179;DHT22;4624;48.126;11.546;2023-04-19T03:09:57;9.40;99.90
9179;DHT22;4624;48.126;11.546;2023-04-19T03:12:24;9.40;99.90
9179;DHT22;4624;48.126;11.546;2023-04-19T03:14:51;9.40;99.90
9179;DHT22;4624;48.126;11.546;2023-04-19T03:17:17;9.40;99.90
9179;DHT22;4624;48.126;11.546;2023-04-19T03:19:44;9.40;99.90
9179;DHT22;4624;48.126;11.546;2023-04-19T03:22:11;9.30;99.90
9179;DHT22;4624;48.126;11.546;2023-04-19T03:24:39;9.30;99.90
9179;DHT22;4624;48.126;11.546;2023-04-19T03:27:06;9.30;99.90
9179;DHT22;4624;48.126;11.546;2023-04-19T03:29:33;9.30;99.90
9179;DHT22;4624;48.126;11.546;2023-04-19T03:31:59;9.30;99.90
9179;DHT22;4624;48.126;11.546;2023-04-19T03:34:26;9.30;99.90
9179;DHT22;4624;48.126;11.546;2023-04-19T03:36:53;9.30;99.90
9179;DHT22;4624;48.126;11.546;2023-04-19T03:39:20;9.30;99.90
9179;DHT22;4624;48.126;11.546;2023-04-19T03:41:48;9.30;99.90
9179;DHT22;4624;48.126;11.546;2023-04-19T03:44:15;9.30;99.90
9179;DHT22;4624;48.126;11.546;2023-04-19T03:46:42;9.20;99.90
9179;DHT22;4624;48.126;11.546;2023-04-19T03:49:10;9.30;99.90
9179;DHT22;4624;48.126;11.546;2023-04-19T03:51:37;9.30;99.90
9179;DHT22;4624;48.126;11.546;2023-04-19T03:54:04;9.30;99.90
9179;DHT22;4624;48.126;11.546;2023-04-19T03:56:31;9.30;99.90
9179;DHT22;4624;48.126;11.546;2023-04-19T03:58:59;9.30;99.90
9179;DHT22;4624;48.126;11.546;2023-04-19T04:01:26;9.20;99.90
9179;DHT22;4624;48.126;11.546;2023-04-19T04:03:53;9.30;99.90
9179;DHT22;4624;48.126;11.546;2023-04-19T04:06:20;9.30;99.90
9179;DHT22;4624;48.126;11.546;2023-04-19T04:08:46;9.20;99.90
9179;DHT22;4624;48.126;11.546;2023-04-19T04:11:13;9.20;99.90
9179;DHT22;4624;48.126;11.546;2023-04-19T04:13:40;9.30;99.90
9179;DHT22;4624;48.126;11.546;2023-04-19T04:16:09;9.30;99.90
9179;DHT22;4624;48.126;11.546;2023-04-19T04:18:35;9.20;99.90
9179;DHT22;4624;48.126;11.546;2023-04-19T04:21:03;9.30;99.90
9179;DHT22;4624;48.126;11.546;2023-04-19T04:23:30;9.30;99.90
9179;DHT22;4624;48.126;11.546;2023-04-19T04:25:56;9.30;99.90
9179;DHT22;4624;48.126;11.546;2023-04-19T04:28:25;9.30;99.90
9179;DHT22;4624;48.126;11.546;2023-04-19T04:30:52;9.30;99.90
9179;DHT22;4624;48.126;11.546;2023-04-19T04:33:23;9.30;99.90
9179;DHT22;4624;48.126;11.546;2023-04-19T04:35:50;9.30;99.90
9179;DHT22;4624;48.126;11.546;2023-04-19T04:38:17;9.30;99.90
9179;DHT22;4624;48.126;11.546;2023-04-19T04:40:48;9.30;99.90
9179;DHT22;4624;48.126;11.546;2023-04-19T04:43:15;9.30;99.90
9179;DHT22;4624;48.126;11.546;2023-04-19T04:45:42;9.30;99.90
9179;DHT22;4624;48.126;11.546;2023-04-19T04:48:09;9.30;99.90
9179;DHT22;4624;48.126;11.546;2023-04-19T04:50:38;9.30;99.90
9179;DHT22;4624;48.126;11.546;2023-04-19T04:53:05;9.30;99.90
9179;DHT22;4624;48.126;11.546;2023-04-19T04:55:33;9.30;99.90
9179;DHT22;4624;48.126;11.546;2023-04-19T04:58:00;9.30;99.90
9179;DHT22;4624;48.126;11.546;2023-04-19T05:00:30;9.30;99.90
9179;DHT22;4624;48.126;11.546;2023-04-19T05:02:56;9.30;99.90
9179;DHT22;4624;48.126;11.546;2023-04-19T05:05:23;9.20;99.90
9179;DHT22;4624;48.126;11.546;2023-04-19T05:07:51;9.20;99.90
9179;DHT22;4624;48.126;11.546;2023-04-19T05:10:18;9.30;99.90
9179;DHT22;4624;48.126;11.546;2023-04-19T05:12:45;9.30;99.90
9179;DHT22;4624;48.126;11.546;2023-04-19T05:15:12;9.30;99.90
9179;DHT22;4624;48.126;11.546;2023-04-19T05:17:38;9.30;99.90
9179;DHT22;4624;48.126;11.546;2023-04-19T05:20:08;9.30;99.90
9179;DHT22;4624;48.126;11.546;2023-04-19T05:22:35;9.20;99.90
9179;DHT22;4624;48.126;11.546;2023-04-19T05:25:04;9.30;99.90
9179;DHT22;4624;48.126;11.546;2023-04-19T05:27:31;9.30;99.90
9179;DHT22;4624;48.126;11.546;2023-04-19T05:29:57;9.30;99.90
9179;DHT22;4624;48.126;11.546;2023-04-19T05:32:24;9.40;99.90
9179;DHT22;4624;48.126;11.546;2023-04-19T05:34:52;9.50;99.90
9179;DHT22;4624;48.126;11.546;2023-04-19T05:37:19;9.50;99.90
9179;DHT22;4624;48.126;11.546;2023-04-19T05:39:45;9.50;99.90
9179;DHT22;4624;48.126;11.546;2023-04-19T05:42:13;9.50;99.90
9179;DHT22;4624;48.126;11.546;2023-04-19T05:44:40;9.50;99.90
9179;DHT22;4624;48.126;11.546;2023-04-19T05:47:07;9.50;99.90
9179;DHT22;4624;48.126;11.546;2023-04-19T05:49:34;9.50;99.90
9179;DHT22;4624;48.126;11.546;2023-04-19T05:52:01;9.50;99.90
9179;DHT22;4624;48.126;11.546;2023-04-19T05:54:27;9.50;99.90
9179;DHT22;4624;48.126;11.546;2023-04-19T05:56:58;9.40;99.90
9179;DHT22;4624;48.126;11.546;2023-04-19T05:59:27;9.40;99.90
9179;DHT22;4624;48.126;11.546;2023-04-19T06:01:53;9.40;99.90
9179;DHT22;4624;48.126;11.546;2023-04-19T06:04:21;9.40;99.90
9179;DHT22;4624;48.126;11.546;2023-04-19T06:06:48;9.40;99.90
9179;DHT22;4624;48.126;11.546;2023-04-19T06:09:14;9.50;99.90
9179;DHT22;4624;48.126;11.546;2023-04-19T06:11:42;9.50;99.90
9179;DHT22;4624;48.126;11.546;2023-04-19T06:14:09;9.50;99.90
9179;DHT22;4624;48.126;11.546;2023-04-19T06:16:38;9.50;99.90
9179;DHT22;4624;48.126;11.546;2023-04-19T06:19:05;9.50;99.90
9179;DHT22;4624;48.126;11.546;2023-04-19T06:21:32;9.50;99.90
9179;DHT22;4624;48.126;11.546;2023-04-19T06:23:59;9.60;99.90
9179;DHT22;4624;48.126;11.546;2023-04-19T06:26:26;9.50;99.90
9179;DHT22;4624;48.126;11.546;2023-04-19T06:28:52;9.50;99.90
9179;DHT22;4624;48.126;11.546;2023-04-19T06:31:19;9.50;99.90
9179;DHT22;4624;48.126;11.546;2023-04-19T06:33:47;9.50;99.90
9179;DHT22;4624;48.126;11.546;2023-04-19T06:36:14;9.50;99.90
9179;DHT22;4624;48.126;11.546;2023-04-19T06:38:41;9.50;99.90
9179;DHT22;4624;48.126;11.546;2023-04-19T06:41:09;9.40;99.90
9179;DHT22;4624;48.126;11.546;2023-04-19T06:43:35;9.40;99.90
9179;DHT22;4624;48.126;11.546;2023-04-19T06:46:04;9.40;99.90
9179;DHT22;4624;48.126;11.546;2023-04-19T06:48:33;9.40;99.90
9179;DHT22;4624;48.126;11.546;2023-04-19T06:51:02;9.40;99.90
9179;DHT22;4624;48.126;11.546;2023-04-19T06:53:29;9.40;99.90
9179;DHT22;4624;48.126;11.546;2023-04-19T06:55:58;9.50;99.90
9179;DHT22;4624;48.126;11.546;2023-04-19T06:58:25;9.50;99.90
9179;DHT22;4624;48.126;11.546;2023-04-19T07:00:52;9.50;99.90
9179;DHT22;4624;48.126;11.546;2023-04-19T07:03:19;9.50;99.90
9179;DHT22;4624;48.126;11.546;2023-04-19T07:05:46;9.50;99.90
9179;DHT22;4624;48.126;11.546;2023-04-19T07:08:14;9.60;99.90
9179;DHT22;4624;48.126;11.546;2023-04-19T07:10:41;9.60;99.90
9179;DHT22;4624;48.126;11.546;2023-04-19T07:13:09;9.60;99.90
9179;DHT22;4624;48.126;11.546;2023-04-19T07:15:36;9.70;99.90
9179;DHT22;4624;48.126;11.546;2023-04-19T07:18:03;9.70;99.90
9179;DHT22;4624;48.126;11.546;2023-04-19T07:20:30;9.70;99.90
9179;DHT22;4624;48.126;11.546;2023-04-19T07:22:57;9.70;99.90
9179;DHT22;4624;48.126;11.546;2023-04-19T07:25:25;9.70;99.90
9179;DHT22;4624;48.126;11.546;2023-04-19T07:27:52;9.70;99.90
9179;DHT22;4624;48.126;11.546;2023-04-19T07:30:19;9.70;99.90
9179;DHT22;4624;48.126;11.546;2023-04-19T07:32:46;9.70;99.90
9179;DHT22;4624;48.126;11.546;2023-04-19T07:35:13;9.80;99.90
9179;DHT22;4624;48.126;11.546;2023-04-19T07:37:40;9.70;99.90
9179;DHT22;4624;48.126;11.546;2023-04-19T07:40:08;9.80;99.90
9179;DHT22;4624;48.126;11.546;2023-04-19T07:42:36;9.80;99.90
9179;DHT22;4624;48.126;11.546;2023-04-19T07:45:04;9.80;99.90
9179;DHT22;4624;48.126;11.546;2023-04-19T07:47:31;9.90;99.90
9179;DHT22;4624;48.126;11.546;2023-04-19T07:49:58;9.90;99.90
9179;DHT22;4624;48.126;11.546;2023-04-19T07:52:25;9.90;99.90
9179;DHT22;4624;48.126;11.546;2023-04-19T07:54:52;10.00;99.90
9179;DHT22;4624;48.126;11.546;2023-04-19T07:57:18;10.10;99.90
9179;DHT22;4624;48.126;11.546;2023-04-19T07:59:47;10.20;99.90
9179;DHT22;4624;48.126;11.546;2023-04-19T08:02:13;10.30;99.90
9179;DHT22;4624;48.126;11.546;2023-04-19T08:04:44;10.40;99.90
9179;DHT22;4624;48.126;11.546;2023-04-19T08:07:12;10.70;99.90
9179;DHT22;4624;48.126;11.546;2023-04-19T08:09:39;10.90;99.90
9179;DHT22;4624;48.126;11.546;2023-04-19T08:12:06;11.20;99.90
9179;DHT22;4624;48.126;11.546;2023-04-19T08:14:33;11.30;99.90
9179;DHT22;4624;48.126;11.546;2023-04-19T08:17:01;11.40;99.90
9179;DHT22;4624;48.126;11.546;2023-04-19T08:19:29;11.40;99.90
9179;DHT22;4624;48.126;11.546;2023-04-19T08:21:56;11.50;99.90
9179;DHT22;4624;48.126;11.546;2023-04-19T08:24:22;11.50;99.90
9179;DHT22;4624;48.126;11.546;2023-04-19T08:26:49;11.40;99.90
9179;DHT22;4624;48.126;11.546;2023-04-19T08:29:19;11.40;99.90
9179;DHT22;4624;48.126;11.546;2023-04-19T08:31:46;11.40;99.90
9179;DHT22;4624;48.126;11.546;2023-04-19T08:34:14;11.30;99.90
9179;DHT22;4624;48.126;11.546;2023-04-19T08:36:42;11.30;99.90
9179;DHT22;4624;48.126;11.546;2023-04-19T08:39:10;11.20;99.90
9179;DHT22;4624;48.126;11.546;2023-04-19T08:41:38;11.20;99.90
9179;DHT22;4624;48.126;11.546;2023-04-19T08:44:05;11.20;99.90
9179;DHT22;4624;48.126;11.546;2023-04-19T08:46:32;11.20;99.90
9179;DHT22;4624;48.126;11.546;2023-04-19T08:48:59;11.30;99.90
9179;DHT22;4624;48.126;11.546;2023-04-19T08:51:28;11.40;99.90
9179;DHT22;4624;48.126;11.546;2023-04-19T08:53:58;11.40;99.90
9179;DHT22;4624;48.126;11.546;2023-04-19T08:56:25;11.40;99.90
9179;DHT22;4624;48.126;11.546;2023-04-19T08:58:53;11.50;99.90
9179;DHT22;4624;48.126;11.546;2023-04-19T09:01:19;11.50;99.90
9179;DHT22;4624;48.126;11.546;2023-04-19T09:03:46;11.50;99.90
9179;DHT22;4624;48.126;11.546;2023-04-19T09:06:13;11.50;99.90
9179;DHT22;4624;48.126;11.546;2023-04-19T09:08:41;11.60;99.90
9179;DHT22;4624;48.126;11.546;2023-04-19T09:11:08;11.50;99.90
9179;DHT22;4624;48.126;11.546;2023-04-19T09:13:35;11.50;99.90
9179;DHT22;4624;48.126;11.546;2023-04-19T09:16:03;11.50;99.90
9179;DHT22;4624;48.126;11.546;2023-04-19T09:18:32;11.50;99.90
9179;DHT22;4624;48.126;11.546;2023-04-19T09:20:59;11.40;99.90
9179;DHT22;4624;48.126;11.546;2023-04-19T09:23:27;11.40;99.90
9179;DHT22;4624;48.126;11.546;2023-04-19T09:25:56;11.40;99.90
9179;DHT22;4624;48.126;11.546;2023-04-19T09:28:25;11.40;99.90
9179;DHT22;4624;48.126;11.546;2023-04-19T09:30:52;11.40;99.90
9179;DHT22;4624;48.126;11.546;2023-04-19T09:33:33;11.40;99.90
9179;DHT22;4624;48.126;11.546;2023-04-19T09:36:01;11.60;99.90
9179;DHT22;4624;48.126;11.546;2023-04-19T09:38:28;11.60;99.90
9179;DHT22;4624;48.126;11.546;2023-04-19T09:41:06;11.70;99.90
9179;DHT22;4624;48.126;11.546;2023-04-19T09:43:33;11.80;99.90
9179;DHT22;4624;48.126;11.546;2023-04-19T09:46:00;11.90;99.90
9179;DHT22;4624;48.126;11.546;2023-04-19T09:48:27;12.00;99.90
9179;DHT22;4624;48.126;11.546;2023-04-19T09:50:55;12.10;99.90
9179;DHT22;4624;48.126;11.546;2023-04-19T09:53:22;12.40;99.90
9179;DHT22;4624;48.126;11.546;2023-04-19T09:55:50;12.80;99.90
9179;DHT22;4624;48.126;11.546;2023-04-19T09:58:19;13.20;99.90
9179;DHT22;4624;48.126;11.546;2023-04-19T10:00:46;13.60;99.90
9179;DHT22;4624;48.126;11.546;2023-04-19T10:03:15;14.00;99.90
9179;DHT22;4624;48.126;11.546;2023-04-19T10:05:44;14.40;99.90
9179;DHT22;4624;48.126;11.546;2023-04-19T10:08:12;14.50;99.40
9179;DHT22;4624;48.126;11.546;2023-04-19T10:10:39;14.60;98.90
9179;DHT22;4624;48.126;11.546;2023-04-19T10:13:09;14.50;98.60
9179;DHT22;4624;48.126;11.546;2023-04-19T10:15:38;14.40;98.30
9179;DHT22;4624;48.126;11.546;2023-04-19T10:18:07;14.20;97.90
9179;DHT22;4624;48.126;11.546;2023-04-19T10:20:41;14.00;97.60
9179;DHT22;4624;48.126;11.546;2023-04-19T10:23:14;13.70;97.60
9179;DHT22;4624;48.126;11.546;2023-04-19T10:25:45;13.70;97.90
9179;DHT22;4624;48.126;11.546;2023-04-19T10:28:12;13.90;98.00
9179;DHT22;4624;48.126;11.546;2023-04-19T10:30:52;14.30;97.80
9179;DHT22;4624;48.126;11.546;2023-04-19T10:33:24;14.90;97.40
9179;DHT22;4624;48.126;11.546;2023-04-19T10:35:54;15.50;97.00
9179;DHT22;4624;48.126;11.546;2023-04-19T10:38:34;15.60;96.40
9179;DHT22;4624;48.126;11.546;2023-04-19T10:41:02;15.50;96.10
9179;DHT22;4624;48.126;11.546;2023-04-19T10:43:30;15.10;95.60
9179;DHT22;4624;48.126;11.546;2023-04-19T10:46:01;14.60;95.60
9179;DHT22;4624;48.126;11.546;2023-04-19T10:48:36;14.30;95.80
9179;DHT22;4624;48.126;11.546;2023-04-19T10:51:09;13.90;96.00
9179;DHT22;4624;48.126;11.546;2023-04-19T10:53:52;13.60;96.20
9179;DHT22;4624;48.126;11.546;2023-04-19T10:56:20;13.20;96.50
9179;DHT22;4624;48.126;11.546;2023-04-19T10:59:13;12.90;96.90
9179;DHT22;4624;48.126;11.546;2023-04-19T11:01:49;12.60;97.40
9179;DHT22;4624;48.126;11.546;2023-04-19T11:04:19;12.40;97.60
9179;DHT22;4624;48.126;11.546;2023-04-19T11:07:00;12.20;97.80
9179;DHT22;4624;48.126;11.546;2023-04-19T11:09:29;12.00;97.90
9179;DHT22;4624;48.126;11.546;2023-04-19T11:11:58;11.80;97.90
9179;DHT22;4624;48.126;11.546;2023-04-19T11:14:29;11.70;98.20
9179;DHT22;4624;48.126;11.546;2023-04-19T11:16:59;11.60;98.40
9179;DHT22;4624;48.126;11.546;2023-04-19T11:19:25;11.50;98.60
9179;DHT22;4624;48.126;11.546;2023-04-19T11:21:57;11.40;98.80
9179;DHT22;4624;48.126;11.546;2023-04-19T11:24:24;11.40;99.00
9179;DHT22;4624;48.126;11.546;2023-04-19T11:26:51;11.30;99.10
9179;DHT22;4624;48.126;11.546;2023-04-19T11:29:18;11.30;99.50
9179;DHT22;4624;48.126;11.546;2023-04-19T11:31:46;11.30;99.90
9179;DHT22;4624;48.126;11.546;2023-04-19T11:34:14;11.20;99.90
9179;DHT22;4624;48.126;11.546;2023-04-19T11:36:48;11.20;99.90
9179;DHT22;4624;48.126;11.546;2023-04-19T11:39:15;11.20;99.90
9179;DHT22;4624;48.126;11.546;2023-04-19T11:41:42;11.20;99.90
9179;DHT22;4624;48.126;11.546;2023-04-19T11:44:13;11.30;99.90
9179;DHT22;4624;48.126;11.546;2023-04-19T11:46:40;11.30;99.90
9179;DHT22;4624;48.126;11.546;2023-04-19T11:49:07;11.20;99.90
9179;DHT22;4624;48.126;11.546;2023-04-19T11:51:39;11.20;99.90
9179;DHT22;4624;48.126;11.546;2023-04-19T11:54:12;11.20;99.90
9179;DHT22;4624;48.126;11.546;2023-04-19T11:56:59;11.20;99.90
9179;DHT22;4624;48.126;11.546;2023-04-19T11:59:26;11.20;99.90
9179;DHT22;4624;48.126;11.546;2023-04-19T12:01:53;11.10;99.90
9179;DHT22;4624;48.126;11.546;2023-04-19T12:04:20;11.00;99.90
9179;DHT22;4624;48.126;11.546;2023-04-19T12:06:57;11.00;99.90
9179;DHT22;4624;48.126;11.546;2023-04-19T12:09:24;10.90;99.90
9179;DHT22;4624;48.126;11.546;2023-04-19T12:11:51;10.90;99.90
9179;DHT22;4624;48.126;11.546;2023-04-19T12:14:18;10.90;99.90
9179;DHT22;4624;48.126;11.546;2023-04-19T12:17:08;10.90;99.90
9179;DHT22;4624;48.126;11.546;2023-04-19T12:19:36;10.90;99.90
9179;DHT22;4624;48.126;11.546;2023-04-19T12:22:12;10.80;99.90
9179;DHT22;4624;48.126;11.546;2023-04-19T12:24:39;10.80;99.90
9179;DHT22;4624;48.126;11.546;2023-04-19T12:27:06;10.80;99.90
9179;DHT22;4624;48.126;11.546;2023-04-19T12:29:33;10.80;99.90
9179;DHT22;4624;48.126;11.546;2023-04-19T12:32:01;10.90;99.90
9179;DHT22;4624;48.126;11.546;2023-04-19T12:34:28;10.90;99.90
9179;DHT22;4624;48.126;11.546;2023-04-19T12:36:55;10.90;99.90
9179;DHT22;4624;48.126;11.546;2023-04-19T12:39:24;10.90;99.90
9179;DHT22;4624;48.126;11.546;2023-04-19T12:41:51;10.90;99.90
9179;DHT22;4624;48.126;11.546;2023-04-19T12:44:17;10.90;99.90
9179;DHT22;4624;48.126;11.546;2023-04-19T12:46:44;10.80;99.90
9179;DHT22;4624;48.126;11.546;2023-04-19T12:49:11;10.80;99.90
9179;DHT22;4624;48.126;11.546;2023-04-19T12:51:38;10.70;99.90
9179;DHT22;4624;48.126;11.546;2023-04-19T12:54:04;10.70;99.90
9179;DHT22;4624;48.126;11.546;2023-04-19T12:56:34;10.80;99.90
9179;DHT22;4624;48.126;11.546;2023-04-19T12:59:00;10.70;99.90
9179;DHT22;4624;48.126;11.546;2023-04-19T13:01:27;10.70;99.90
9179;DHT22;4624;48.126;11.546;2023-04-19T13:03:54;10.60;99.90
9179;DHT22;4624;48.126;11.546;2023-04-19T13:06:21;10.60;99.90
9179;DHT22;4624;48.126;11.546;2023-04-19T13:08:47;10.70;99.90
9179;DHT22;4624;48.126;11.546;2023-04-19T13:11:15;10.60;99.90
9179;DHT22;4624;48.126;11.546;2023-04-19T13:13:49;10.60;99.90
9179;DHT22;4624;48.126;11.546;2023-04-19T13:16:17;10.70;99.90
9179;DHT22;4624;48.126;11.546;2023-04-19T13:18:43;10.70;99.90
9179;DHT22;4624;48.126;11.546;2023-04-19T13:21:10;10.70;99.90
9179;DHT22;4624;48.126;11.546;2023-04-19T13:23:37;10.60;99.90
9179;DHT22;4624;48.126;11.546;2023-04-19T13:26:04;10.60;99.90
9179;DHT22;4624;48.126;11.546;2023-04-19T13:28:31;10.60;99.90
9179;DHT22;4624;48.126;11.546;2023-04-19T13:31:01;10.60;99.90
9179;DHT22;4624;48.126;11.546;2023-04-19T13:33:28;10.60;99.90
9179;DHT22;4624;48.126;11.546;2023-04-19T13:35:55;10.60;99.90
9179;DHT22;4624;48.126;11.546;2023-04-19T13:38:22;10.60;99.90
9179;DHT22;4624;48.126;11.546;2023-04-19T13:40:49;10.60;99.90
9179;DHT22;4624;48.126;11.546;2023-04-19T13:43:15;10.60;99.90
9179;DHT22;4624;48.126;11.546;2023-04-19T13:45:42;10.50;99.90
9179;DHT22;4624;48.126;11.546;2023-04-19T13:48:10;10.50;99.90
9179;DHT22;4624;48.126;11.546;2023-04-19T13:50:37;10.50;99.90
9179;DHT22;4624;48.126;11.546;2023-04-19T13:53:04;10.50;99.90
9179;DHT22;4624;48.126;11.546;2023-04-19T13:55:31;10.50;99.90
9179;DHT22;4624;48.126;11.546;2023-04-19T13:57:57;10.40;99.90
9179;DHT22;4624;48.126;11.546;2023-04-19T14:00:25;10.40;99.90
9179;DHT22;4624;48.126;11.546;2023-04-19T14:02:53;10.40;99.90
9179;DHT22;4624;48.126;11.546;2023-04-19T14:05:21;10.40;99.90
9179;DHT22;4624;48.126;11.546;2023-04-19T14:07:49;10.40;99.90
9179;DHT22;4624;48.126;11.546;2023-04-19T14:10:17;10.40;99.90
9179;DHT22;4624;48.126;11.546;2023-04-19T14:12:43;10.30;99.90
9179;DHT22;4624;48.126;11.546;2023-04-19T14:15:11;10.30;99.90
9179;DHT22;4624;48.126;11.546;2023-04-19T14:17:38;10.20;99.90
9179;DHT22;4624;48.126;11.546;2023-04-19T14:20:05;10.10;99.90
9179;DHT22;4624;48.126;11.546;2023-04-19T14:22:34;9.90;99.90
9179;DHT22;4624;48.126;11.546;2023-04-19T14:25:01;9.80;99.90
9179;DHT22;4624;48.126;11.546;2023-04-19T14:27:27;9.70;99.90
9179;DHT22;4624;48.126;11.546;2023-04-19T14:29:54;9.60;99.90
9179;DHT22;4624;48.126;11.546;2023-04-19T14:32:21;9.60;99.90
9179;DHT22;4624;48.126;11.546;2023-04-19T14:34:48;9.60;99.90
9179;DHT22;4624;48.126;11.546;2023-04-19T14:37:15;9.60;99.90
9179;DHT22;4624;48.126;11.546;2023-04-19T14:39:45;9.60;99.90
9179;DHT22;4624;48.126;11.546;2023-04-19T14:42:12;9.50;99.90
9179;DHT22;4624;48.126;11.546;2023-04-19T14:44:38;9.40;99.90
9179;DHT22;4624;48.126;11.546;2023-04-19T14:47:05;9.20;99.90
9179;DHT22;4624;48.126;11.546;2023-04-19T14:49:32;9.20;99.90
9179;DHT22;4624;48.126;11.546;2023-04-19T14:51:59;9.20;99.90
9179;DHT22;4624;48.126;11.546;2023-04-19T14:54:25;9.10;99.90
9179;DHT22;4624;48.126;11.546;2023-04-19T14:56:54;9.10;99.90
9179;DHT22;4624;48.126;11.546;2023-04-19T14:59:20;9.00;99.90
9179;DHT22;4624;48.126;11.546;2023-04-19T15:01:47;8.90;99.90
9179;DHT22;4624;48.126;11.546;2023-04-19T15:04:14;8.90;99.90
9179;DHT22;4624;48.126;11.546;2023-04-19T15:06:41;8.80;99.90
9179;DHT22;4624;48.126;11.546;2023-04-19T15:09:08;8.70;99.90
9179;DHT22;4624;48.126;11.546;2023-04-19T15:11:35;8.60;99.90
9179;DHT22;4624;48.126;11.546;2023-04-19T15:14:03;8.50;99.90
9179;DHT22;4624;48.126;11.546;2023-04-19T15:16:30;8.40;99.90
9179;DHT22;4624;48.126;11.546;2023-04-19T15:18:56;8.40;99.90
9179;DHT22;4624;48.126;11.546;2023-04-19T15:21:23;8.30;99.90
9179;DHT22;4624;48.126;11.546;2023-04-19T15:23:50;8.30;99.90
9179;DHT22;4624;48.126;11.546;2023-04-19T15:26:17;8.30;99.90
9179;DHT22;4624;48.126;11.546;2023-04-19T15:28:44;8.20;99.90
9179;DHT22;4624;48.126;11.546;2023-04-19T15:31:12;8.20;99.90
9179;DHT22;4624;48.126;11.546;2023-04-19T15:33:38;8.30;99.90
9179;DHT22;4624;48.126;11.546;2023-04-19T15:36:06;8.30;99.90
9179;DHT22;4624;48.126;11.546;2023-04-19T15:38:34;8.40;99.90
9179;DHT22;4624;48.126;11.546;2023-04-19T15:41:01;8.40;99.90
9179;DHT22;4624;48.126;11.546;2023-04-19T15:43:27;8.40;99.90
9179;DHT22;4624;48.126;11.546;2023-04-19T15:45:54;8.50;99.90
9179;DHT22;4624;48.126;11.546;2023-04-19T15:48:22;8.40;99.90
9179;DHT22;4624;48.126;11.546;2023-04-19T15:50:49;8.40;99.90
9179;DHT22;4624;48.126;11.546;2023-04-19T15:53:16;8.30;99.90
9179;DHT22;4624;48.126;11.546;2023-04-19T15:55:43;8.30;99.90
9179;DHT22;4624;48.126;11.546;2023-04-19T15:58:11;8.30;99.90